sensor_id;sensor_type;location;lat;lon;timestamp;P1;durP1;ratioP1;P2;durP2;ratioP2
19225;SDS011;9747;48.536;12.522;2023-04-15T00:01:24;1.55;;;1.45;;
19225;SDS011;9747;48.536;12.522;2023-04-15T00:03:52;1.50;;;1.40;;
19225;SDS011;9747;48.536;12.522;2023-04-15T00:06:21;1.50;;;1.40;;
19225;SDS011;9747;48.536;12.522;2023-04-15T00:08:48;1.10;;;1.10;;
19225;SDS011;9747;48.536;12.522;2023-04-15T00:11:17;1.38;;;1.30;;
19225;SDS011;9747;48.536;12.522;2023-04-15T00:13:45;1.30;;;1.30;;
19225;SDS011;9747;48.536;12.522;2023-04-15T00:16:12;1.60;;;1.50;;
19225;SDS011;9747;48.536;12.522;2023-04-15T00:18:40;1.27;;;1.25;;
19225;SDS011;9747;48.536;12.522;2023-04-15T00:21:07;1.30;;;1.20;;
19225;SDS011;9747;48.536;12.522;2023-04-15T00:23:34;1.50;;;1.40;;
19225;SDS011;9747;48.536;12.522;2023-04-15T00:26:02;1.25;;;1.25;;
19225;SDS011;9747;48.536;12.522;2023-04-15T00:28:30;1.10;;;1.10;;
19225;SDS011;9747;48.536;12.522;2023-04-15T00:30:58;1.67;;;1.58;;
19225;SDS011;9747;48.536;12.522;2023-04-15T00:33:25;1.30;;;1.20;;
19225;SDS011;9747;48.536;12.522;2023-04-15T00:35:53;1.20;;;1.20;;
19225;SDS011;9747;48.536;12.522;2023-04-15T00:38:20;1.35;;;1.33;;
19225;SDS011;9747;48.536;12.522;2023-04-15T00:40:48;1.58;;;1.40;;
19225;SDS011;9747;48.536;12.522;2023-04-15T00:43:15;1.20;;;1.20;;
19225;SDS011;9747;48.536;12.522;2023-04-15T00:45:44;1.10;;;1.10;;
19225;SDS011;9747;48.536;12.522;2023-04-15T00:48:12;1.50;;;1.35;;
19225;SDS011;9747;48.536;12.522;2023-04-15T00:50:39;1.40;;;1.30;;
19225;SDS011;9747;48.536;12.522;2023-04-15T00:53:07;1.13;;;1.13;;
19225;SDS011;9747;48.536;12.522;2023-04-15T00:55:34;1.48;;;1.38;;
19225;SDS011;9747;48.536;12.522;2023-04-15T00:58:02;1.27;;;1.17;;
19225;SDS011;9747;48.536;12.522;2023-04-15T01:00:29;1.40;;;1.30;;
19225;SDS011;9747;48.536;12.522;2023-04-15T01:02:58;1.08;;;1.08;;
19225;SDS011;9747;48.536;12.522;2023-04-15T01:05:26;1.40;;;1.40;;
19225;SDS011;9747;48.536;12.522;2023-04-15T01:07:55;1.20;;;1.20;;
19225;SDS011;9747;48.536;12.522;2023-04-15T01:10:22;1.23;;;1.20;;
19225;SDS011;9747;48.536;12.522;2023-04-15T01:12:50;1.35;;;1.25;;
19225;SDS011;9747;48.536;12.522;2023-04-15T01:15:17;1.10;;;1.10;;
19225;SDS011;9747;48.536;12.522;2023-04-15T01:17:45;1.10;;;1.10;;
19225;SDS011;9747;48.536;12.522;2023-04-15T01:20:14;1.05;;;1.05;;
19225;SDS011;9747;48.536;12.522;2023-04-15T01:22:41;1.02;;;1.02;;
19225;SDS011;9747;48.536;12.522;2023-04-15T01:25:10;1.40;;;1.30;;
19225;SDS011;9747;48.536;12.522;2023-04-15T01:27:42;1.25;;;1.25;;
19225;SDS011;9747;48.536;12.522;2023-04-15T01:30:09;1.15;;;1.15;;
19225;SDS011;9747;48.536;12.522;2023-04-15T01:32:37;1.25;;;1.20;;
19225;SDS011;9747;48.536;12.522;2023-04-15T01:35:05;1.23;;;1.23;;
19225;SDS011;9747;48.536;12.522;2023-04-15T01:37:33;1.13;;;1.13;;
19225;SDS011;9747;48.536;12.522;2023-04-15T01:40:01;1.55;;;1.50;;
19225;SDS011;9747;48.536;12.522;2023-04-15T01:42:28;1.00;;;1.00;;
19225;SDS011;9747;48.536;12.522;2023-04-15T01:44:58;1.13;;;1.13;;
19225;SDS011;9747;48.536;12.522;2023-04-15T01:47:26;1.40;;;1.30;;
19225;SDS011;9747;48.536;12.522;2023-04-15T01:49:53;1.20;;;1.20;;
19225;SDS011;9747;48.536;12.522;2023-04-15T01:52:21;1.20;;;1.20;;
19225;SDS011;9747;48.536;12.522;2023-04-15T01:54:48;1.20;;;1.20;;
19225;SDS011;9747;48.536;12.522;2023-04-15T01:57:17;1.30;;;1.30;;
19225;SDS011;9747;48.536;12.522;2023-04-15T01:59:44;1.20;;;1.20;;
19225;SDS011;9747;48.536;12.522;2023-04-15T02:02:14;1.10;;;1.10;;
19225;SDS011;9747;48.536;12.522;2023-04-15T02:04:42;1.30;;;1.20;;
19225;SDS011;9747;48.536;12.522;2023-04-15T02:07:09;1.13;;;1.13;;
19225;SDS011;9747;48.536;12.522;2023-04-15T02:09:37;1.35;;;1.25;;
19225;SDS011;9747;48.536;12.522;2023-04-15T02:12:06;1.30;;;1.30;;
19225;SDS011;9747;48.536;12.522;2023-04-15T02:14:34;1.27;;;1.27;;
19225;SDS011;9747;48.536;12.522;2023-04-15T02:17:01;1.48;;;1.40;;
19225;SDS011;9747;48.536;12.522;2023-04-15T02:19:32;1.50;;;1.40;;
19225;SDS011;9747;48.536;12.522;2023-04-15T02:22:02;1.50;;;1.40;;
19225;SDS011;9747;48.536;12.522;2023-04-15T02:24:31;1.50;;;1.40;;
19225;SDS011;9747;48.536;12.522;2023-04-15T02:26:59;1.35;;;1.35;;
19225;SDS011;9747;48.536;12.522;2023-04-15T02:29:27;1.13;;;1.10;;
19225;SDS011;9747;48.536;12.522;2023-04-15T02:31:56;1.02;;;1.02;;
19225;SDS011;9747;48.536;12.522;2023-04-15T02:34:26;1.40;;;1.40;;
19225;SDS011;9747;48.536;12.522;2023-04-15T02:36:57;1.23;;;1.23;;
19225;SDS011;9747;48.536;12.522;2023-04-15T02:39:25;1.17;;;1.17;;
19225;SDS011;9747;48.536;12.522;2023-04-15T02:41:52;1.20;;;1.20;;
19225;SDS011;9747;48.536;12.522;2023-04-15T02:44:24;1.40;;;1.40;;
19225;SDS011;9747;48.536;12.522;2023-04-15T02:46:56;1.42;;;1.33;;
19225;SDS011;9747;48.536;12.522;2023-04-15T02:49:23;1.15;;;1.15;;
19225;SDS011;9747;48.536;12.522;2023-04-15T02:51:53;1.20;;;1.20;;
19225;SDS011;9747;48.536;12.522;2023-04-15T02:54:25;1.20;;;1.20;;
19225;SDS011;9747;48.536;12.522;2023-04-15T02:56:53;1.20;;;1.20;;
19225;SDS011;9747;48.536;12.522;2023-04-15T02:59:21;1.20;;;1.20;;
19225;SDS011;9747;48.536;12.522;2023-04-15T03:01:48;1.10;;;1.10;;
19225;SDS011;9747;48.536;12.522;2023-04-15T03:04:16;1.30;;;1.30;;
19225;SDS011;9747;48.536;12.522;2023-04-15T03:06:43;1.08;;;1.08;;
19225;SDS011;9747;48.536;12.522;2023-04-15T03:09:10;1.30;;;1.20;;
19225;SDS011;9747;48.536;12.522;2023-04-15T03:11:39;1.10;;;1.10;;
19225;SDS011;9747;48.536;12.522;2023-04-15T03:14:08;1.13;;;1.13;;
19225;SDS011;9747;48.536;12.522;2023-04-15T03:16:40;4.13;;;1.30;;
19225;SDS011;9747;48.536;12.522;2023-04-15T03:19:07;1.25;;;1.23;;
19225;SDS011;9747;48.536;12.522;2023-04-15T03:21:37;1.20;;;1.20;;
19225;SDS011;9747;48.536;12.522;2023-04-15T03:24:06;1.23;;;1.23;;
19225;SDS011;9747;48.536;12.522;2023-04-15T03:26:34;1.40;;;1.40;;
19225;SDS011;9747;48.536;12.522;2023-04-15T03:29:09;1.25;;;1.20;;
19225;SDS011;9747;48.536;12.522;2023-04-15T03:31:38;1.40;;;1.40;;
19225;SDS011;9747;48.536;12.522;2023-04-15T03:34:05;1.20;;;1.20;;
19225;SDS011;9747;48.536;12.522;2023-04-15T03:36:33;1.10;;;1.10;;
19225;SDS011;9747;48.536;12.522;2023-04-15T03:39:00;1.15;;;1.15;;
19225;SDS011;9747;48.536;12.522;2023-04-15T03:41:28;1.33;;;1.33;;
19225;SDS011;9747;48.536;12.522;2023-04-15T03:43:56;1.13;;;1.13;;
19225;SDS011;9747;48.536;12.522;2023-04-15T03:46:25;1.20;;;1.20;;
19225;SDS011;9747;48.536;12.522;2023-04-15T03:48:52;1.40;;;1.40;;
19225;SDS011;9747;48.536;12.522;2023-04-15T03:51:20;1.27;;;1.27;;
19225;SDS011;9747;48.536;12.522;2023-04-15T03:53:47;1.30;;;1.30;;
19225;SDS011;9747;48.536;12.522;2023-04-15T03:56:15;1.40;;;1.40;;
19225;SDS011;9747;48.536;12.522;2023-04-15T03:58:43;1.42;;;1.40;;
19225;SDS011;9747;48.536;12.522;2023-04-15T04:01:10;1.10;;;1.10;;
19225;SDS011;9747;48.536;12.522;2023-04-15T04:03:39;1.30;;;1.30;;
19225;SDS011;9747;48.536;12.522;2023-04-15T04:06:06;1.45;;;1.40;;
19225;SDS011;9747;48.536;12.522;2023-04-15T04:08:34;1.30;;;1.30;;
19225;SDS011;9747;48.536;12.522;2023-04-15T04:11:02;1.27;;;1.27;;
19225;SDS011;9747;48.536;12.522;2023-04-15T04:13:30;1.48;;;1.30;;
19225;SDS011;9747;48.536;12.522;2023-04-15T04:15:58;1.40;;;1.30;;
19225;SDS011;9747;48.536;12.522;2023-04-15T04:18:25;1.30;;;1.23;;
19225;SDS011;9747;48.536;12.522;2023-04-15T04:20:54;1.25;;;1.17;;
19225;SDS011;9747;48.536;12.522;2023-04-15T04:23:21;1.20;;;1.20;;
19225;SDS011;9747;48.536;12.522;2023-04-15T04:25:49;1.42;;;1.33;;
19225;SDS011;9747;48.536;12.522;2023-04-15T04:28:16;1.45;;;1.45;;
19225;SDS011;9747;48.536;12.522;2023-04-15T04:30:44;1.75;;;1.50;;
19225;SDS011;9747;48.536;12.522;2023-04-15T04:33:11;1.38;;;1.30;;
19225;SDS011;9747;48.536;12.522;2023-04-15T04:35:39;1.40;;;1.40;;
19225;SDS011;9747;48.536;12.522;2023-04-15T04:38:07;1.42;;;1.33;;
19225;SDS011;9747;48.536;12.522;2023-04-15T04:40:35;1.35;;;1.35;;
19225;SDS011;9747;48.536;12.522;2023-04-15T04:43:02;1.20;;;1.20;;
19225;SDS011;9747;48.536;12.522;2023-04-15T04:45:30;1.60;;;1.40;;
19225;SDS011;9747;48.536;12.522;2023-04-15T04:47:57;1.10;;;1.10;;
19225;SDS011;9747;48.536;12.522;2023-04-15T04:50:25;1.02;;;1.02;;
19225;SDS011;9747;48.536;12.522;2023-04-15T04:52:52;1.25;;;1.25;;
19225;SDS011;9747;48.536;12.522;2023-04-15T04:55:21;1.10;;;1.10;;
19225;SDS011;9747;48.536;12.522;2023-04-15T04:57:48;1.13;;;1.13;;
19225;SDS011;9747;48.536;12.522;2023-04-15T05:00:16;1.13;;;1.13;;
19225;SDS011;9747;48.536;12.522;2023-04-15T05:02:43;1.20;;;1.10;;
19225;SDS011;9747;48.536;12.522;2023-04-15T05:05:11;1.10;;;1.10;;
19225;SDS011;9747;48.536;12.522;2023-04-15T05:07:38;1.00;;;1.00;;
19225;SDS011;9747;48.536;12.522;2023-04-15T05:10:06;1.10;;;1.00;;
19225;SDS011;9747;48.536;12.522;2023-04-15T05:12:36;0.90;;;0.90;;
19225;SDS011;9747;48.536;12.522;2023-04-15T05:15:04;1.00;;;1.00;;
19225;SDS011;9747;48.536;12.522;2023-04-15T05:17:33;1.30;;;1.30;;
19225;SDS011;9747;48.536;12.522;2023-04-15T05:20:00;1.17;;;1.17;;
19225;SDS011;9747;48.536;12.522;2023-04-15T05:22:28;1.42;;;1.42;;
19225;SDS011;9747;48.536;12.522;2023-04-15T05:24:55;1.35;;;1.20;;
19225;SDS011;9747;48.536;12.522;2023-04-15T05:27:23;0.90;;;0.90;;
19225;SDS011;9747;48.536;12.522;2023-04-15T05:29:52;1.00;;;1.00;;
19225;SDS011;9747;48.536;12.522;2023-04-15T05:32:20;1.00;;;1.00;;
19225;SDS011;9747;48.536;12.522;2023-04-15T05:34:48;0.98;;;0.98;;
19225;SDS011;9747;48.536;12.522;2023-04-15T05:37:16;1.08;;;1.08;;
19225;SDS011;9747;48.536;12.522;2023-04-15T05:39:45;0.90;;;0.90;;
19225;SDS011;9747;48.536;12.522;2023-04-15T05:42:12;0.95;;;0.82;;
19225;SDS011;9747;48.536;12.522;2023-04-15T05:44:40;1.10;;;1.10;;
19225;SDS011;9747;48.536;12.522;2023-04-15T05:47:08;1.00;;;1.00;;
19225;SDS011;9747;48.536;12.522;2023-04-15T05:49:36;0.90;;;0.90;;
19225;SDS011;9747;48.536;12.522;2023-04-15T05:52:03;0.90;;;0.90;;
19225;SDS011;9747;48.536;12.522;2023-04-15T05:54:31;0.85;;;0.85;;
19225;SDS011;9747;48.536;12.522;2023-04-15T05:56:58;1.08;;;1.08;;
19225;SDS011;9747;48.536;12.522;2023-04-15T05:59:25;0.82;;;0.82;;
19225;SDS011;9747;48.536;12.522;2023-04-15T06:01:53;0.82;;;0.82;;
19225;SDS011;9747;48.536;12.522;2023-04-15T06:04:22;0.85;;;0.85;;
19225;SDS011;9747;48.536;12.522;2023-04-15T06:06:49;0.90;;;0.90;;
19225;SDS011;9747;48.536;12.522;2023-04-15T06:09:17;0.90;;;0.90;;
19225;SDS011;9747;48.536;12.522;2023-04-15T06:11:45;1.10;;;1.10;;
19225;SDS011;9747;48.536;12.522;2023-04-15T06:14:12;1.00;;;1.00;;
19225;SDS011;9747;48.536;12.522;2023-04-15T06:16:39;0.80;;;0.80;;
19225;SDS011;9747;48.536;12.522;2023-04-15T06:19:07;0.90;;;0.90;;
19225;SDS011;9747;48.536;12.522;2023-04-15T06:21:36;0.80;;;0.80;;
19225;SDS011;9747;48.536;12.522;2023-04-15T06:24:04;0.88;;;0.88;;
19225;SDS011;9747;48.536;12.522;2023-04-15T06:26:32;0.85;;;0.85;;
19225;SDS011;9747;48.536;12.522;2023-04-15T06:28:59;0.80;;;0.80;;
19225;SDS011;9747;48.536;12.522;2023-04-15T06:31:27;0.77;;;0.77;;
19225;SDS011;9747;48.536;12.522;2023-04-15T06:33:54;0.80;;;0.80;;
19225;SDS011;9747;48.536;12.522;2023-04-15T06:36:22;0.80;;;0.80;;
19225;SDS011;9747;48.536;12.522;2023-04-15T06:38:51;0.70;;;0.70;;
19225;SDS011;9747;48.536;12.522;2023-04-15T06:41:18;0.88;;;0.80;;
19225;SDS011;9747;48.536;12.522;2023-04-15T06:43:46;1.13;;;0.80;;
19225;SDS011;9747;48.536;12.522;2023-04-15T06:46:13;0.90;;;0.90;;
19225;SDS011;9747;48.536;12.522;2023-04-15T06:48:40;0.75;;;0.75;;
19225;SDS011;9747;48.536;12.522;2023-04-15T06:51:08;1.10;;;0.90;;
19225;SDS011;9747;48.536;12.522;2023-04-15T06:53:37;0.90;;;0.90;;
19225;SDS011;9747;48.536;12.522;2023-04-15T06:56:07;0.60;;;0.60;;
19225;SDS011;9747;48.536;12.522;2023-04-15T06:58:37;0.80;;;0.80;;
19225;SDS011;9747;48.536;12.522;2023-04-15T07:01:05;0.90;;;0.73;;
19225;SDS011;9747;48.536;12.522;2023-04-15T07:03:32;0.98;;;0.80;;
19225;SDS011;9747;48.536;12.522;2023-04-15T07:06:00;0.70;;;0.70;;
19225;SDS011;9747;48.536;12.522;2023-04-15T07:08:30;1.02;;;0.60;;
19225;SDS011;9747;48.536;12.522;2023-04-15T07:10:58;0.90;;;0.90;;
19225;SDS011;9747;48.536;12.522;2023-04-15T07:13:26;1.58;;;0.80;;
19225;SDS011;9747;48.536;12.522;2023-04-15T07:15:56;1.95;;;0.77;;
19225;SDS011;9747;48.536;12.522;2023-04-15T07:18:23;0.90;;;0.90;;
19225;SDS011;9747;48.536;12.522;2023-04-15T07:20:51;1.90;;;0.85;;
19225;SDS011;9747;48.536;12.522;2023-04-15T07:23:18;1.13;;;1.02;;
19225;SDS011;9747;48.536;12.522;2023-04-15T07:25:46;1.25;;;0.80;;
19225;SDS011;9747;48.536;12.522;2023-04-15T07:28:14;0.77;;;0.70;;
19225;SDS011;9747;48.536;12.522;2023-04-15T07:30:42;1.17;;;0.80;;
19225;SDS011;9747;48.536;12.522;2023-04-15T07:33:10;1.85;;;0.98;;
19225;SDS011;9747;48.536;12.522;2023-04-15T07:35:37;1.23;;;0.90;;
19225;SDS011;9747;48.536;12.522;2023-04-15T07:38:05;1.23;;;1.05;;
19225;SDS011;9747;48.536;12.522;2023-04-15T07:40:32;1.92;;;0.90;;
19225;SDS011;9747;48.536;12.522;2023-04-15T07:43:00;1.15;;;0.77;;
19225;SDS011;9747;48.536;12.522;2023-04-15T07:45:27;1.95;;;1.02;;
19225;SDS011;9747;48.536;12.522;2023-04-15T07:47:56;1.52;;;0.80;;
19225;SDS011;9747;48.536;12.522;2023-04-15T07:50:23;1.85;;;0.95;;
19225;SDS011;9747;48.536;12.522;2023-04-15T07:52:51;2.05;;;0.95;;
19225;SDS011;9747;48.536;12.522;2023-04-15T07:55:18;3.53;;;1.23;;
19225;SDS011;9747;48.536;12.522;2023-04-15T07:57:47;3.03;;;1.00;;
19225;SDS011;9747;48.536;12.522;2023-04-15T08:00:15;1.88;;;1.00;;
19225;SDS011;9747;48.536;12.522;2023-04-15T08:02:42;2.15;;;0.95;;
19225;SDS011;9747;48.536;12.522;2023-04-15T08:05:12;2.25;;;1.00;;
19225;SDS011;9747;48.536;12.522;2023-04-15T08:07:40;2.83;;;0.90;;
19225;SDS011;9747;48.536;12.522;2023-04-15T08:10:07;1.85;;;1.00;;
19225;SDS011;9747;48.536;12.522;2023-04-15T08:12:35;1.33;;;0.90;;
19225;SDS011;9747;48.536;12.522;2023-04-15T08:15:02;2.85;;;0.80;;
19225;SDS011;9747;48.536;12.522;2023-04-15T08:17:32;0.93;;;0.90;;
19225;SDS011;9747;48.536;12.522;2023-04-15T08:19:59;1.23;;;0.85;;
19225;SDS011;9747;48.536;12.522;2023-04-15T08:22:29;0.90;;;0.90;;
19225;SDS011;9747;48.536;12.522;2023-04-15T08:24:56;1.45;;;0.90;;
19225;SDS011;9747;48.536;12.522;2023-04-15T08:27:23;1.45;;;1.00;;
19225;SDS011;9747;48.536;12.522;2023-04-15T08:29:51;2.55;;;0.93;;
19225;SDS011;9747;48.536;12.522;2023-04-15T08:32:19;1.05;;;0.80;;
19225;SDS011;9747;48.536;12.522;2023-04-15T08:34:46;2.17;;;0.90;;
19225;SDS011;9747;48.536;12.522;2023-04-15T08:37:14;1.25;;;0.98;;
19225;SDS011;9747;48.536;12.522;2023-04-15T08:39:43;3.55;;;1.00;;
19225;SDS011;9747;48.536;12.522;2023-04-15T08:42:11;3.47;;;1.00;;
19225;SDS011;9747;48.536;12.522;2023-04-15T08:44:43;3.03;;;1.00;;
19225;SDS011;9747;48.536;12.522;2023-04-15T08:47:12;0.80;;;0.80;;
19225;SDS011;9747;48.536;12.522;2023-04-15T08:49:40;2.63;;;0.80;;
19225;SDS011;9747;48.536;12.522;2023-04-15T08:52:08;0.90;;;0.90;;
19225;SDS011;9747;48.536;12.522;2023-04-15T08:54:36;1.42;;;0.77;;
19225;SDS011;9747;48.536;12.522;2023-04-15T08:57:05;0.90;;;0.90;;
19225;SDS011;9747;48.536;12.522;2023-04-15T08:59:33;1.90;;;1.00;;
19225;SDS011;9747;48.536;12.522;2023-04-15T09:02:01;1.20;;;0.73;;
19225;SDS011;9747;48.536;12.522;2023-04-15T09:04:29;0.90;;;0.80;;
19225;SDS011;9747;48.536;12.522;2023-04-15T09:06:57;2.10;;;1.13;;
19225;SDS011;9747;48.536;12.522;2023-04-15T09:09:25;0.98;;;0.80;;
19225;SDS011;9747;48.536;12.522;2023-04-15T09:11:53;1.25;;;0.90;;
19225;SDS011;9747;48.536;12.522;2023-04-15T09:14:22;0.70;;;0.70;;
19225;SDS011;9747;48.536;12.522;2023-04-15T09:16:55;1.35;;;0.80;;
19225;SDS011;9747;48.536;12.522;2023-04-15T09:19:23;2.47;;;0.85;;
19225;SDS011;9747;48.536;12.522;2023-04-15T09:21:52;1.08;;;1.05;;
19225;SDS011;9747;48.536;12.522;2023-04-15T09:24:21;0.82;;;0.80;;
19225;SDS011;9747;48.536;12.522;2023-04-15T09:26:51;5.63;;;1.95;;
19225;SDS011;9747;48.536;12.522;2023-04-15T09:29:22;2.83;;;1.20;;
19225;SDS011;9747;48.536;12.522;2023-04-15T09:31:51;5.35;;;1.40;;
19225;SDS011;9747;48.536;12.522;2023-04-15T09:34:18;5.28;;;1.50;;
19225;SDS011;9747;48.536;12.522;2023-04-15T09:36:53;1.95;;;1.08;;
19225;SDS011;9747;48.536;12.522;2023-04-15T09:39:21;1.50;;;0.93;;
19225;SDS011;9747;48.536;12.522;2023-04-15T09:42:04;1.75;;;0.90;;
19225;SDS011;9747;48.536;12.522;2023-04-15T09:44:34;2.20;;;0.98;;
19225;SDS011;9747;48.536;12.522;2023-04-15T09:47:01;5.57;;;2.08;;
19225;SDS011;9747;48.536;12.522;2023-04-15T09:49:29;5.45;;;3.13;;
19225;SDS011;9747;48.536;12.522;2023-04-15T09:51:57;1.80;;;1.60;;
19225;SDS011;9747;48.536;12.522;2023-04-15T09:54:31;2.20;;;1.70;;
19225;SDS011;9747;48.536;12.522;2023-04-15T09:57:03;1.77;;;1.55;;
19225;SDS011;9747;48.536;12.522;2023-04-15T09:59:33;18.13;;;2.30;;
19225;SDS011;9747;48.536;12.522;2023-04-15T10:02:01;2.00;;;1.90;;
19225;SDS011;9747;48.536;12.522;2023-04-15T10:04:32;3.80;;;3.60;;
19225;SDS011;9747;48.536;12.522;2023-04-15T10:07:02;6.63;;;6.20;;
19225;SDS011;9747;48.536;12.522;2023-04-15T10:09:31;7.45;;;6.95;;
19225;SDS011;9747;48.536;12.522;2023-04-15T10:11:59;8.00;;;7.50;;
19225;SDS011;9747;48.536;12.522;2023-04-15T10:14:27;10.02;;;8.13;;
19225;SDS011;9747;48.536;12.522;2023-04-15T10:17:01;7.05;;;6.30;;
19225;SDS011;9747;48.536;12.522;2023-04-15T10:21:58;6.90;;;6.03;;
19225;SDS011;9747;48.536;12.522;2023-04-15T10:24:26;11.60;;;6.10;;
19225;SDS011;9747;48.536;12.522;2023-04-15T10:26:53;5.95;;;5.38;;
19225;SDS011;9747;48.536;12.522;2023-04-15T10:29:22;7.50;;;4.35;;
19225;SDS011;9747;48.536;12.522;2023-04-15T10:31:51;5.32;;;4.88;;
19225;SDS011;9747;48.536;12.522;2023-04-15T10:34:22;5.25;;;3.63;;
19225;SDS011;9747;48.536;12.522;2023-04-15T10:36:50;4.22;;;3.95;;
19225;SDS011;9747;48.536;12.522;2023-04-15T10:42:09;4.20;;;3.20;;
19225;SDS011;9747;48.536;12.522;2023-04-15T10:44:40;3.13;;;2.88;;
19225;SDS011;9747;48.536;12.522;2023-04-15T10:47:10;2.63;;;2.50;;
19225;SDS011;9747;48.536;12.522;2023-04-15T10:49:43;2.90;;;2.70;;
19225;SDS011;9747;48.536;12.522;2023-04-15T10:52:14;2.40;;;2.20;;
19225;SDS011;9747;48.536;12.522;2023-04-15T10:54:43;1.98;;;1.88;;
19225;SDS011;9747;48.536;12.522;2023-04-15T10:57:15;1.70;;;1.60;;
19225;SDS011;9747;48.536;12.522;2023-04-15T11:00:01;3.45;;;1.98;;
19225;SDS011;9747;48.536;12.522;2023-04-15T11:02:44;1.73;;;1.63;;
19225;SDS011;9747;48.536;12.522;2023-04-15T11:05:16;2.13;;;1.58;;
19225;SDS011;9747;48.536;12.522;2023-04-15T11:07:49;2.20;;;1.30;;
19225;SDS011;9747;48.536;12.522;2023-04-15T11:13:21;1.70;;;1.17;;
19225;SDS011;9747;48.536;12.522;2023-04-15T11:16:00;2.58;;;1.30;;
19225;SDS011;9747;48.536;12.522;2023-04-15T11:18:29;1.75;;;1.40;;
19225;SDS011;9747;48.536;12.522;2023-04-15T11:21:01;2.47;;;1.23;;
19225;SDS011;9747;48.536;12.522;2023-04-15T11:23:31;1.70;;;1.58;;
19225;SDS011;9747;48.536;12.522;2023-04-15T11:26:05;1.98;;;1.20;;
19225;SDS011;9747;48.536;12.522;2023-04-15T11:28:36;3.17;;;1.60;;
19225;SDS011;9747;48.536;12.522;2023-04-15T11:31:06;1.20;;;1.20;;
19225;SDS011;9747;48.536;12.522;2023-04-15T11:33:36;6.00;;;2.05;;
19225;SDS011;9747;48.536;12.522;2023-04-15T11:36:21;5.68;;;1.50;;
19225;SDS011;9747;48.536;12.522;2023-04-15T11:38:52;1.90;;;1.55;;
19225;SDS011;9747;48.536;12.522;2023-04-15T11:41:20;4.15;;;1.98;;
19225;SDS011;9747;48.536;12.522;2023-04-15T11:43:48;7.18;;;1.80;;
19225;SDS011;9747;48.536;12.522;2023-04-15T11:46:15;7.82;;;2.50;;
19225;SDS011;9747;48.536;12.522;2023-04-15T11:48:44;7.03;;;1.80;;
19225;SDS011;9747;48.536;12.522;2023-04-15T11:51:12;7.10;;;1.95;;
19225;SDS011;9747;48.536;12.522;2023-04-15T11:53:42;4.00;;;1.58;;
19225;SDS011;9747;48.536;12.522;2023-04-15T11:56:15;5.80;;;1.70;;
19225;SDS011;9747;48.536;12.522;2023-04-15T11:58:45;5.97;;;1.60;;
19225;SDS011;9747;48.536;12.522;2023-04-15T12:01:14;4.53;;;1.70;;
19225;SDS011;9747;48.536;12.522;2023-04-15T12:03:44;3.75;;;1.50;;
19225;SDS011;9747;48.536;12.522;2023-04-15T12:06:13;5.97;;;1.50;;
19225;SDS011;9747;48.536;12.522;2023-04-15T12:11:37;5.35;;;1.30;;
19225;SDS011;9747;48.536;12.522;2023-04-15T12:14:08;4.00;;;1.60;;
19225;SDS011;9747;48.536;12.522;2023-04-15T12:16:39;4.22;;;1.58;;
19225;SDS011;9747;48.536;12.522;2023-04-15T12:19:09;4.88;;;1.73;;
19225;SDS011;9747;48.536;12.522;2023-04-15T12:21:38;6.53;;;2.00;;
19225;SDS011;9747;48.536;12.522;2023-04-15T12:24:08;3.40;;;1.52;;
19225;SDS011;9747;48.536;12.522;2023-04-15T12:26:42;2.78;;;1.52;;
19225;SDS011;9747;48.536;12.522;2023-04-15T12:29:11;5.00;;;1.63;;
19225;SDS011;9747;48.536;12.522;2023-04-15T12:31:50;6.07;;;1.60;;
19225;SDS011;9747;48.536;12.522;2023-04-15T12:34:25;3.75;;;1.50;;
19225;SDS011;9747;48.536;12.522;2023-04-15T12:36:54;4.15;;;1.48;;
19225;SDS011;9747;48.536;12.522;2023-04-15T12:39:24;5.28;;;1.67;;
19225;SDS011;9747;48.536;12.522;2023-04-15T12:41:53;5.95;;;1.80;;
19225;SDS011;9747;48.536;12.522;2023-04-15T12:44:21;4.28;;;1.80;;
19225;SDS011;9747;48.536;12.522;2023-04-15T12:46:49;2.80;;;1.30;;
19225;SDS011;9747;48.536;12.522;2023-04-15T12:49:17;3.33;;;1.30;;
19225;SDS011;9747;48.536;12.522;2023-04-15T12:51:45;6.40;;;1.55;;
19225;SDS011;9747;48.536;12.522;2023-04-15T12:54:14;4.47;;;1.55;;
19225;SDS011;9747;48.536;12.522;2023-04-15T12:56:43;3.20;;;1.30;;
19225;SDS011;9747;48.536;12.522;2023-04-15T12:59:11;3.78;;;1.75;;
19225;SDS011;9747;48.536;12.522;2023-04-15T13:01:39;3.03;;;1.10;;
19225;SDS011;9747;48.536;12.522;2023-04-15T13:04:07;2.53;;;1.27;;
19225;SDS011;9747;48.536;12.522;2023-04-15T13:06:34;4.03;;;1.35;;
19225;SDS011;9747;48.536;12.522;2023-04-15T13:09:02;5.28;;;1.60;;
19225;SDS011;9747;48.536;12.522;2023-04-15T13:11:30;2.85;;;1.27;;
19225;SDS011;9747;48.536;12.522;2023-04-15T13:14:00;2.80;;;1.35;;
19225;SDS011;9747;48.536;12.522;2023-04-15T13:16:28;2.38;;;1.20;;
19225;SDS011;9747;48.536;12.522;2023-04-15T13:18:56;4.45;;;1.60;;
19225;SDS011;9747;48.536;12.522;2023-04-15T13:21:24;3.60;;;1.30;;
19225;SDS011;9747;48.536;12.522;2023-04-15T13:23:52;2.08;;;1.00;;
19225;SDS011;9747;48.536;12.522;2023-04-15T13:26:20;2.15;;;1.27;;
19225;SDS011;9747;48.536;12.522;2023-04-15T13:28:47;5.47;;;1.42;;
19225;SDS011;9747;48.536;12.522;2023-04-15T13:31:16;3.38;;;1.13;;
19225;SDS011;9747;48.536;12.522;2023-04-15T13:33:43;3.45;;;1.48;;
19225;SDS011;9747;48.536;12.522;2023-04-15T13:36:11;2.17;;;1.17;;
19225;SDS011;9747;48.536;12.522;2023-04-15T13:38:38;1.33;;;1.10;;
19225;SDS011;9747;48.536;12.522;2023-04-15T13:41:05;3.50;;;1.35;;
19225;SDS011;9747;48.536;12.522;2023-04-15T13:43:33;2.95;;;1.30;;
19225;SDS011;9747;48.536;12.522;2023-04-15T13:46:01;2.00;;;1.30;;
19225;SDS011;9747;48.536;12.522;2023-04-15T13:48:29;2.70;;;1.20;;
19225;SDS011;9747;48.536;12.522;2023-04-15T13:50:57;3.30;;;1.27;;
19225;SDS011;9747;48.536;12.522;2023-04-15T13:53:24;4.50;;;1.30;;
19225;SDS011;9747;48.536;12.522;2023-04-15T13:55:51;4.72;;;1.52;;
19225;SDS011;9747;48.536;12.522;2023-04-15T13:58:19;2.60;;;1.20;;
19225;SDS011;9747;48.536;12.522;2023-04-15T14:00:46;4.40;;;1.60;;
19225;SDS011;9747;48.536;12.522;2023-04-15T14:03:13;4.20;;;1.60;;
19225;SDS011;9747;48.536;12.522;2023-04-15T14:05:42;3.03;;;1.35;;
19225;SDS011;9747;48.536;12.522;2023-04-15T14:08:10;3.33;;;1.50;;
19225;SDS011;9747;48.536;12.522;2023-04-15T14:10:38;1.42;;;1.13;;
19225;SDS011;9747;48.536;12.522;2023-04-15T14:13:08;3.05;;;1.20;;
19225;SDS011;9747;48.536;12.522;2023-04-15T14:15:35;2.75;;;1.00;;
19225;SDS011;9747;48.536;12.522;2023-04-15T14:18:03;1.70;;;0.95;;
19225;SDS011;9747;48.536;12.522;2023-04-15T14:20:30;1.92;;;1.10;;
19225;SDS011;9747;48.536;12.522;2023-04-15T14:22:59;4.30;;;1.00;;
19225;SDS011;9747;48.536;12.522;2023-04-15T14:25:26;3.25;;;1.30;;
19225;SDS011;9747;48.536;12.522;2023-04-15T14:27:54;2.97;;;1.30;;
19225;SDS011;9747;48.536;12.522;2023-04-15T14:30:21;3.95;;;1.00;;
19225;SDS011;9747;48.536;12.522;2023-04-15T14:32:48;3.85;;;1.33;;
19225;SDS011;9747;48.536;12.522;2023-04-15T14:35:16;4.40;;;1.38;;
19225;SDS011;9747;48.536;12.522;2023-04-15T14:37:43;4.53;;;1.13;;
19225;SDS011;9747;48.536;12.522;2023-04-15T14:40:12;5.60;;;1.50;;
19225;SDS011;9747;48.536;12.522;2023-04-15T14:42:40;2.95;;;1.25;;
19225;SDS011;9747;48.536;12.522;2023-04-15T14:45:07;3.40;;;1.27;;
19225;SDS011;9747;48.536;12.522;2023-04-15T14:47:36;2.97;;;1.48;;
19225;SDS011;9747;48.536;12.522;2023-04-15T14:50:04;3.45;;;1.30;;
19225;SDS011;9747;48.536;12.522;2023-04-15T14:52:32;1.10;;;1.00;;
19225;SDS011;9747;48.536;12.522;2023-04-15T14:55:03;2.03;;;1.30;;
19225;SDS011;9747;48.536;12.522;2023-04-15T14:57:33;2.85;;;1.20;;
19225;SDS011;9747;48.536;12.522;2023-04-15T15:00:00;1.20;;;1.10;;
19225;SDS011;9747;48.536;12.522;2023-04-15T15:02:28;4.18;;;1.50;;
19225;SDS011;9747;48.536;12.522;2023-04-15T15:04:56;2.47;;;1.10;;
19225;SDS011;9747;48.536;12.522;2023-04-15T15:07:23;3.80;;;1.55;;